Time;durP1;ratioP1;P1;durP2;ratioP2;P2;SDS_P1;SDS_P2;PMS_P1;PMS_P2;Temp;Humidity;BMP_temperature;BMP_pressure;BME280_temperature;BME280_humidity;BME280_pressure;Samples;Min_cycle;Max_cycle;Signal;HPM_P1;HPM_P2
2022/10/14 00:12:26;;;;;;;59.50;39.73;;;4.30;99.90;;;;;;5891389;24;20218;-86
2022/10/14 00:42:46;;;;;;;61.93;40.97;;;4.70;99.90;;;;;;5694155;24;20212;-85
2022/10/14 01:08:16;;;;;;;62.63;39.87;;;4.70;99.90;;;;;;5822466;24;20158;-85
2022/10/14 01:28:30;;;;;;;52.10;31.23;;;4.60;99.90;;;;;;5803168;24;20803;-86
2022/10/14 01:48:05;;;;;;;46.77;31.20;;;4.80;99.90;;;;;;5981943;23;20536;-85
2022/10/14 02:44:26;;;;;;;46.33;31.80;;;5.60;99.90;;;;;;5953230;23;20190;-83
2022/10/14 03:09:45;;;;;;;49.30;29.67;;;5.80;99.90;;;;;;5710109;24;20194;-85
2022/10/14 03:34:56;;;;;;;38.30;27.50;;;6.00;99.90;;;;;;5655259;24;20421;-86
2022/10/14 04:25:57;;;;;;;46.03;28.33;;;6.10;99.90;;;;;;5656403;24;20651;-76
2022/10/14 04:51:21;;;;;;;40.90;28.43;;;6.00;99.90;;;;;;5512675;24;20183;-76
2022/10/14 06:07:26;;;;;;;39.87;27.63;;;7.00;99.90;;;;;;5532764;24;20712;-77
2022/10/14 06:37:48;;;;;;;35.67;26.57;;;7.90;99.90;;;;;;5575648;24;20831;-78
2022/10/14 07:38:34;;;;;;;37.93;27.03;;;9.60;99.90;;;;;;5491426;24;20647;-79
2022/10/14 08:09:12;;;;;;;36.03;26.23;;;10.30;99.90;;;;;;5553742;24;20186;-80
2022/10/14 09:30:00;;;;;;;26.63;21.53;;;13.10;90.80;;;;;;5366425;25;20603;-79
2022/10/14 09:50:26;;;;;;;26.77;20.93;;;14.00;89.70;;;;;;5507843;24;20244;-77
2022/10/14 10:15:37;;;;;;;26.30;19.43;;;14.00;89.30;;;;;;5640200;24;20755;-80
2022/10/14 10:35:46;;;;;;;27.17;19.30;;;14.30;89.10;;;;;;5428912;24;21345;-77
2022/10/14 11:01:17;;;;;;;25.00;19.07;;;15.00;88.30;;;;;;5392306;25;20696;-81
2022/10/14 12:37:48;;;;;;;25.30;20.57;;;16.10;87.50;;;;;;4777576;28;21350;-78
2022/10/14 13:12:47;;;;;;;24.77;19.43;;;15.30;90.20;;;;;;4780989;29;20541;-86
2022/10/14 13:48:18;;;;;;;26.30;19.47;;;15.20;90.90;;;;;;4821267;28;20228;-86
2022/10/14 14:13:38;;;;;;;25.97;19.60;;;15.20;90.70;;;;;;5198310;22;20876;31
2022/10/14 14:34:36;;;;;;;23.47;19.10;;;14.80;91.50;;;;;;4722509;29;20218;-86
2022/10/14 14:38:56;;;;;;;23.93;18.57;;;14.70;91.80;;;;;;4719536;29;20284;-87
2022/10/14 15:04:46;;;;;;;23.43;19.13;;;14.40;92.40;;;;;;4770061;29;20200;-86
2022/10/14 15:35:19;;;;;;;25.27;19.10;;;14.00;94.10;;;;;;4795555;29;20343;-88
2022/10/14 16:25:59;;;;;;;32.73;24.27;;;13.60;97.00;;;;;;4665562;30;20262;-86
2022/10/14 16:51:29;;;;;;;36.00;27.83;;;13.30;98.60;;;;;;4969056;28;20226;-88
2022/10/14 17:16:23;;;;;;;37.30;28.87;;;13.10;99.90;;;;;;4829972;29;20265;-87
2022/10/14 17:37:00;;;;;;;39.43;29.00;;;13.00;99.90;;;;;;4873597;29;20209;-88
2022/10/14 18:17:38;;;;;;;42.67;31.83;;;12.50;99.90;;;;;;4876613;28;20819;-86
2022/10/14 18:43:06;;;;;;;45.27;33.40;;;12.20;99.90;;;;;;4731288;29;20244;-85
2022/10/14 19:13:32;;;;;;;50.13;34.77;;;11.80;99.90;;;;;;4771097;29;20283;-86
2022/10/14 19:49:01;;;;;;;48.90;34.23;;;11.60;99.90;;;;;;4889491;29;20266;-85
2022/10/14 20:18:49;;;;;;;48.67;33.67;;;11.40;99.90;;;;;;4830618;29;20457;-85
2022/10/14 20:49:54;;;;;;;53.63;36.23;;;11.10;99.90;;;;;;4789075;29;20243;-88
2022/10/14 21:19:41;;;;;;;62.57;40.63;;;10.60;99.90;;;;;;4790710;29;21070;-88
2022/10/14 21:55:17;;;;;;;71.43;44.43;;;9.80;99.90;;;;;;4747352;29;20545;-87
2022/10/14 22:21:07;;;;;;;83.10;50.37;;;9.30;99.90;;;;;;4800229;29;20220;-88
2022/10/14 22:46:31;;;;;;;80.43;49.30;;;8.70;99.90;;;;;;4689022;30;20289;-88
2022/10/14 23:37:10;;;;;;;97.53;51.57;;;7.50;99.90;;;;;;4756491;29;20193;-86
